createdAt,value
2018-07-05T00:01:27.001Z,74.30
2018-07-05T00:04:01.144Z,73.60
2018-07-05T00:06:34.521Z,73.70
2018-07-05T00:09:07.832Z,73.70
2018-07-05T00:11:41.312Z,73.60
2018-07-05T00:14:14.646Z,73.60
2018-07-05T00:16:48.029Z,73.60
2018-07-05T00:19:21.428Z,73.70
2018-07-05T00:21:54.732Z,73.60
2018-07-05T00:24:28.020Z,73.60
2018-07-05T00:27:01.954Z,73.70
2018-07-05T00:29:35.373Z,73.80
2018-07-05T00:32:08.804Z,73.70
2018-07-05T00:34:42.236Z,73.70
2018-07-05T00:37:15.633Z,73.70
2018-07-05T00:39:49.025Z,73.80
2018-07-05T00:42:22.405Z,73.90
2018-07-05T00:44:55.820Z,73.70
2018-07-05T00:47:29.141Z,73.80
2018-07-05T00:50:03.562Z,73.80
2018-07-05T00:52:36.872Z,73.80
2018-07-05T00:55:11.232Z,73.80
2018-07-05T00:57:44.648Z,74.00
2018-07-05T01:00:17.913Z,73.80
2018-07-05T01:02:51.237Z,73.80
2018-07-05T01:05:24.476Z,73.80
2018-07-05T01:07:57.884Z,73.70
2018-07-05T01:10:31.881Z,73.60
2018-07-05T01:13:05.285Z,73.40
2018-07-05T01:15:38.557Z,73.40
2018-07-05T01:18:11.914Z,73.40
2018-07-05T01:20:45.321Z,73.60
2018-07-05T01:23:18.700Z,73.50
2018-07-05T01:25:52.014Z,73.80
2018-07-05T01:28:25.334Z,74.40
2018-07-05T01:30:58.776Z,73.60
2018-07-05T01:33:34.322Z,73.60
2018-07-05T01:36:07.666Z,73.50
2018-07-05T01:38:41.069Z,73.30
2018-07-05T01:41:14.495Z,73.60
2018-07-05T01:43:47.859Z,74.40
2018-07-05T01:46:21.256Z,73.90
2018-07-05T01:48:54.750Z,73.80
2018-07-05T01:51:27.996Z,73.90
2018-07-05T01:54:01.987Z,73.40
2018-07-05T01:56:35.335Z,73.40
2018-07-05T01:59:08.752Z,73.30
2018-07-05T02:01:42.001Z,73.10
2018-07-05T02:04:15.372Z,73.00
2018-07-05T02:06:48.760Z,73.00
2018-07-05T02:09:22.249Z,73.00
2018-07-05T02:11:55.674Z,73.20
2018-07-05T02:14:29.155Z,73.10
2018-07-05T02:17:03.525Z,73.40
2018-07-05T02:19:36.899Z,73.40
2018-07-05T02:22:10.333Z,73.70
2018-07-05T02:24:43.699Z,73.90
2018-07-05T02:27:17.043Z,74.00
2018-07-05T02:29:50.433Z,74.00
2018-07-05T02:32:23.796Z,73.90
2018-07-05T02:34:57.188Z,73.70
2018-07-05T02:37:36.041Z,73.90
2018-07-05T02:40:09.506Z,73.80
2018-07-05T02:42:42.788Z,74.10
2018-07-05T02:45:16.132Z,73.80
2018-07-05T02:47:49.500Z,73.80
2018-07-05T02:50:22.892Z,73.60
2018-07-05T02:52:56.280Z,73.60
2018-07-05T02:55:29.685Z,73.50
2018-07-05T02:58:04.177Z,73.60
2018-07-05T03:00:37.618Z,73.50
2018-07-05T03:03:11.016Z,73.70
2018-07-05T03:05:44.618Z,73.50
2018-07-05T03:08:18.057Z,73.90
2018-07-05T03:10:51.576Z,73.70
2018-07-05T03:13:24.956Z,73.80
2018-07-05T03:15:58.200Z,74.00
2018-07-05T03:18:32.047Z,73.70
2018-07-05T03:21:05.363Z,73.40
2018-07-05T03:23:38.776Z,73.50
2018-07-05T03:26:12.288Z,73.50
2018-07-05T03:28:45.656Z,73.60
2018-07-05T03:31:19.084Z,73.70
2018-07-05T03:33:52.520Z,73.80
2018-07-05T03:36:25.820Z,73.60
2018-07-05T03:38:59.301Z,73.80
2018-07-05T03:41:33.630Z,73.30
2018-07-05T03:44:07.013Z,73.40
2018-07-05T03:46:40.993Z,73.80
2018-07-05T03:49:14.445Z,73.80
2018-07-05T03:51:47.828Z,74.00
2018-07-05T03:54:21.214Z,73.90
2018-07-05T03:56:54.588Z,73.80
2018-07-05T03:59:27.848Z,74.10
2018-07-05T04:02:02.312Z,74.20
2018-07-05T04:04:35.809Z,74.20
2018-07-05T04:07:09.143Z,74.30
2018-07-05T04:09:42.652Z,74.30
2018-07-05T04:12:16.026Z,74.20
2018-07-05T04:14:49.269Z,74.30
2018-07-05T04:17:22.678Z,74.30
2018-07-05T04:19:55.940Z,74.20
2018-07-05T04:22:29.288Z,74.90
2018-07-05T04:25:03.541Z,74.10
2018-07-05T04:27:36.944Z,74.20
2018-07-05T04:30:11.800Z,74.10
2018-07-05T04:32:45.168Z,74.20
2018-07-05T04:35:19.692Z,74.20
2018-07-05T04:37:53.136Z,74.20
2018-07-05T04:40:26.506Z,74.20
2018-07-05T04:42:59.928Z,74.20
2018-07-05T04:45:34.232Z,74.90
2018-07-05T04:48:07.598Z,73.90
2018-07-05T04:50:41.233Z,73.50
2018-07-05T04:53:14.596Z,73.10
2018-07-05T04:55:48.045Z,72.70
2018-07-05T04:58:21.400Z,72.50
2018-07-05T05:00:54.699Z,71.80
2018-07-05T05:03:27.956Z,71.80
2018-07-05T05:06:02.967Z,71.60
2018-07-05T05:08:36.375Z,71.10
2018-07-05T05:11:09.755Z,71.10
2018-07-05T05:13:43.024Z,71.10
2018-07-05T05:16:16.533Z,71.20
2018-07-05T05:18:50.013Z,71.30
2018-07-05T05:21:23.225Z,71.20
2018-07-05T05:23:56.656Z,72.10
2018-07-05T05:26:29.908Z,71.40
2018-07-05T05:29:04.287Z,71.40
2018-07-05T05:31:37.708Z,71.50
2018-07-05T05:34:11.008Z,71.50
2018-07-05T05:36:44.408Z,71.80
2018-07-05T05:39:17.921Z,71.60
2018-07-05T05:41:51.306Z,71.60
2018-07-05T05:44:24.641Z,71.60
2018-07-05T05:46:58.157Z,71.50
2018-07-05T05:49:31.544Z,71.50
2018-07-05T05:52:07.075Z,71.70
2018-07-05T05:54:40.984Z,71.70
2018-07-05T05:57:14.581Z,71.60
2018-07-05T05:59:47.988Z,71.60
2018-07-05T06:02:21.284Z,71.70
2018-07-05T06:04:54.744Z,71.70
2018-07-05T06:07:28.500Z,71.80
2018-07-05T06:10:01.787Z,71.80
2018-07-05T06:12:35.108Z,71.90
2018-07-05T06:15:08.701Z,72.70
2018-07-05T06:17:42.033Z,72.00
2018-07-05T06:20:15.416Z,71.90
2018-07-05T06:22:48.892Z,72.10
2018-07-05T06:25:22.288Z,72.00
2018-07-05T06:27:56.150Z,72.10
2018-07-05T06:30:29.611Z,72.10
2018-07-05T06:33:05.048Z,72.20
2018-07-05T06:35:38.348Z,72.10
2018-07-05T06:38:11.808Z,72.30
2018-07-05T06:40:45.382Z,72.30
2018-07-05T06:43:18.791Z,72.20
2018-07-05T06:45:52.079Z,72.40
2018-07-05T06:48:26.233Z,72.40
2018-07-05T06:50:59.710Z,72.30
2018-07-05T06:53:34.293Z,72.30
2018-07-05T06:56:07.696Z,72.40
2018-07-05T06:58:41.014Z,72.50
2018-07-05T07:01:14.461Z,72.50
2018-07-05T07:03:47.872Z,72.50
2018-07-05T07:06:21.392Z,72.50
2018-07-05T07:08:54.752Z,72.60
2018-07-05T07:11:28.147Z,72.60
2018-07-05T07:14:01.409Z,72.70
2018-07-05T07:16:34.781Z,72.70
2018-07-05T07:19:08.022Z,72.70
2018-07-05T07:21:41.376Z,72.70
2018-07-05T07:24:14.792Z,72.70
2018-07-05T07:26:48.229Z,72.90
2018-07-05T07:29:21.604Z,72.80
2018-07-05T07:31:55.094Z,72.80
2018-07-05T07:34:28.761Z,72.80
2018-07-05T07:37:02.189Z,72.90
2018-07-05T07:39:35.587Z,72.90
2018-07-05T07:42:02.761Z,72.80
2018-07-05T07:44:29.924Z,72.90
2018-07-05T07:46:57.859Z,72.90
2018-07-05T07:49:25.036Z,73.00
2018-07-05T07:51:52.221Z,73.00
2018-07-05T07:54:20.211Z,73.80
2018-07-05T07:56:47.384Z,72.90
2018-07-05T07:59:14.568Z,73.50
2018-07-05T08:01:41.740Z,72.80
2018-07-05T08:04:08.906Z,72.70
2018-07-05T08:06:36.076Z,72.60
2018-07-05T08:09:04.383Z,72.50
2018-07-05T08:11:31.572Z,72.50
2018-07-05T08:16:26.211Z,72.50
2018-07-05T08:18:53.365Z,72.30
2018-07-05T08:21:20.533Z,72.40
2018-07-05T08:23:47.708Z,72.40
2018-07-05T08:26:14.868Z,72.30
2018-07-05T08:28:42.027Z,72.50
2018-07-05T08:31:09.184Z,72.50
2018-07-05T08:33:36.344Z,72.50
2018-07-05T08:36:04.025Z,72.50
2018-07-05T08:38:31.195Z,72.50
2018-07-05T08:40:58.356Z,72.50
2018-07-05T08:43:25.573Z,72.40
2018-07-05T08:45:53.620Z,72.30
2018-07-05T08:48:20.794Z,72.30
2018-07-05T08:50:47.957Z,72.40
2018-07-05T08:53:15.136Z,72.40
2018-07-05T08:55:42.296Z,72.40
2018-07-05T08:58:09.473Z,72.50
2018-07-05T09:00:36.680Z,72.60
2018-07-05T09:03:04.696Z,72.50
2018-07-05T09:05:31.849Z,72.50
2018-07-05T09:07:59.012Z,72.60
2018-07-05T09:10:26.230Z,72.50
2018-07-05T09:12:54.363Z,72.60
2018-07-05T09:15:21.528Z,72.70
2018-07-05T09:17:48.866Z,72.90
2018-07-05T09:20:15.900Z,72.70
2018-07-05T09:22:43.080Z,72.70
2018-07-05T09:25:10.249Z,72.80
2018-07-05T09:27:37.431Z,72.90
2018-07-05T09:30:04.588Z,72.70
2018-07-05T09:32:31.767Z,72.70
2018-07-05T09:37:27.598Z,72.70
2018-07-05T09:39:54.767Z,72.70
2018-07-05T09:42:21.971Z,72.60
2018-07-05T09:44:49.140Z,72.70
2018-07-05T09:47:16.305Z,72.70
2018-07-05T09:49:43.469Z,72.60
2018-07-05T09:52:10.648Z,72.60
2018-07-05T09:54:37.819Z,72.60
2018-07-05T09:57:04.985Z,72.70
2018-07-05T09:59:32.156Z,72.80
2018-07-05T10:01:59.345Z,72.80
2018-07-05T10:04:27.196Z,72.80
2018-07-05T10:06:54.356Z,72.70
2018-07-05T10:09:21.532Z,72.80
2018-07-05T10:11:48.696Z,72.80
2018-07-05T10:14:16.371Z,72.90
2018-07-05T10:16:43.532Z,72.80
2018-07-05T10:19:10.688Z,72.80
2018-07-05T10:21:37.844Z,72.90
2018-07-05T10:24:05.006Z,72.80
2018-07-05T10:26:32.181Z,73.00
2018-07-05T10:29:05.618Z,72.90
2018-07-05T10:31:39.253Z,73.00
2018-07-05T10:34:06.425Z,73.60
2018-07-05T10:36:34.079Z,72.90
2018-07-05T10:39:01.241Z,73.00
2018-07-05T10:41:34.552Z,73.10
2018-07-05T10:44:07.976Z,72.90
2018-07-05T10:46:41.412Z,73.10
2018-07-05T10:49:14.676Z,73.10
2018-07-05T10:51:48.253Z,73.20
2018-07-05T10:54:21.636Z,73.20
2018-07-05T10:56:54.880Z,73.00
2018-07-05T10:59:28.292Z,73.00
2018-07-05T11:02:01.747Z,73.30
2018-07-05T11:04:35.151Z,73.20
2018-07-05T11:07:08.579Z,73.30
2018-07-05T11:09:41.965Z,73.20
2018-07-05T11:12:15.376Z,73.20
2018-07-05T11:14:48.839Z,73.20
2018-07-05T11:17:22.164Z,73.30
2018-07-05T11:19:56.953Z,73.20
2018-07-05T11:22:30.502Z,73.30
2018-07-05T11:25:04.969Z,73.40
2018-07-05T11:27:38.340Z,73.40
2018-07-05T11:30:11.783Z,73.40
2018-07-05T11:32:45.015Z,73.30
2018-07-05T11:35:18.432Z,73.40
2018-07-05T11:37:52.142Z,73.40
2018-07-05T11:40:25.158Z,73.50
2018-07-05T11:42:58.928Z,73.60
2018-07-05T11:45:32.236Z,73.40
2018-07-05T11:48:05.625Z,73.50
2018-07-05T11:50:39.056Z,73.40
2018-07-05T11:53:12.421Z,73.30
2018-07-05T11:55:45.896Z,73.30
2018-07-05T11:58:19.320Z,73.30
2018-07-05T12:00:52.604Z,73.30
2018-07-05T12:03:25.980Z,73.50
2018-07-05T12:05:59.419Z,73.50
2018-07-05T12:08:32.748Z,73.30
2018-07-05T12:11:06.355Z,73.20
2018-07-05T12:13:39.837Z,73.10
2018-07-05T12:16:13.228Z,73.10
2018-07-05T12:18:46.624Z,73.10
2018-07-05T12:21:19.840Z,73.10
2018-07-05T12:23:53.321Z,73.10
2018-07-05T12:26:27.261Z,73.10
2018-07-05T12:29:00.671Z,73.30
2018-07-05T12:31:34.181Z,73.10
2018-07-05T12:34:07.384Z,73.30
2018-07-05T12:36:40.750Z,73.30
2018-07-05T12:39:14.108Z,73.20
2018-07-05T12:41:47.597Z,73.30
2018-07-05T12:44:20.993Z,73.30
2018-07-05T12:46:54.420Z,73.30
2018-07-05T12:49:27.868Z,73.30
2018-07-05T12:52:01.129Z,73.30
2018-07-05T12:54:34.976Z,72.90
2018-07-05T12:59:36.556Z,73.20
2018-07-05T13:02:10.013Z,73.30
2018-07-05T13:04:43.260Z,73.30
2018-07-05T13:07:16.653Z,73.30
2018-07-05T13:09:50.020Z,73.50
2018-07-05T13:12:23.404Z,73.40
2018-07-05T13:14:57.288Z,73.40
2018-07-05T13:17:30.768Z,73.50
2018-07-05T13:20:05.552Z,73.50
2018-07-05T13:22:38.928Z,73.50
2018-07-05T13:25:12.327Z,73.50
2018-07-05T13:27:45.705Z,73.40
2018-07-05T13:30:19.068Z,73.50
2018-07-05T13:32:52.535Z,73.60
2018-07-05T13:35:26.435Z,73.20
2018-07-05T13:37:59.776Z,73.30
2018-07-05T13:40:34.173Z,74.10
2018-07-05T13:43:07.548Z,73.40
2018-07-05T13:45:40.818Z,73.40
2018-07-05T13:48:14.181Z,73.40
2018-07-05T13:50:47.632Z,73.50
2018-07-05T13:53:20.965Z,73.20
2018-07-05T13:55:54.423Z,73.60
2018-07-05T13:58:27.928Z,73.40
2018-07-05T14:01:01.333Z,73.50
2018-07-05T14:03:34.687Z,73.50
2018-07-05T14:06:07.984Z,73.60
2018-07-05T14:11:08.849Z,73.70
2018-07-05T14:13:42.224Z,73.40
2018-07-05T14:16:15.616Z,73.40
2018-07-05T14:18:49.154Z,73.30
2018-07-05T14:21:22.408Z,73.30
2018-07-05T14:23:57.063Z,73.40
2018-07-05T14:26:30.368Z,73.10
2018-07-05T14:29:04.496Z,73.30
2018-07-05T14:34:05.645Z,73.30
2018-07-05T14:36:39.072Z,73.00
2018-07-05T14:39:12.320Z,73.20
2018-07-05T14:41:45.792Z,72.90
2018-07-05T14:44:19.126Z,73.00
2018-07-05T14:46:53.324Z,73.20
2018-07-05T14:49:27.480Z,73.30
2018-07-05T14:52:00.876Z,73.20
2018-07-05T14:54:35.159Z,73.20
2018-07-05T14:57:08.588Z,73.20
2018-07-05T14:59:41.964Z,73.20
2018-07-05T15:02:15.215Z,73.10
2018-07-05T15:04:48.657Z,73.00
2018-07-05T15:07:22.117Z,73.00
2018-07-05T15:09:55.468Z,72.90
2018-07-05T15:12:29.360Z,72.90
2018-07-05T15:15:04.317Z,73.00
2018-07-05T15:17:37.616Z,73.10
2018-07-05T15:20:10.963Z,72.90
2018-07-05T15:22:44.245Z,72.90
2018-07-05T15:25:17.630Z,73.10
2018-07-05T15:27:50.984Z,73.10
2018-07-05T15:30:24.353Z,73.00
2018-07-05T15:32:57.664Z,73.00
2018-07-05T15:35:31.008Z,72.80
2018-07-05T15:38:05.172Z,72.70
2018-07-05T15:40:38.416Z,72.90
2018-07-05T15:43:11.805Z,72.60
2018-07-05T15:45:45.277Z,72.90
2018-07-05T15:48:18.596Z,73.00
2018-07-05T15:50:51.976Z,72.90
2018-07-05T15:53:25.382Z,72.90
2018-07-05T15:55:58.792Z,73.00
2018-07-05T15:58:32.256Z,72.80
2018-07-05T16:01:05.753Z,73.10
2018-07-05T16:03:39.145Z,72.90
2018-07-05T16:06:12.423Z,72.90
2018-07-05T16:08:45.868Z,72.80
2018-07-05T16:11:19.388Z,72.90
2018-07-05T16:13:52.779Z,72.90
2018-07-05T16:16:26.840Z,72.90
2018-07-05T16:19:00.108Z,73.00
2018-07-05T16:21:34.421Z,72.90
2018-07-05T16:24:07.863Z,73.10
2018-07-05T16:26:41.284Z,72.90
2018-07-05T16:31:42.016Z,73.00
2018-07-05T16:34:15.533Z,73.00
2018-07-05T16:36:48.974Z,73.20
2018-07-05T16:39:22.333Z,73.20
2018-07-05T16:41:55.781Z,73.30
2018-07-05T16:44:29.812Z,73.30
2018-07-05T16:47:04.664Z,73.40
2018-07-05T16:49:37.960Z,73.30
2018-07-05T16:52:11.296Z,73.30
2018-07-05T16:54:44.683Z,73.30
2018-07-05T16:57:17.984Z,73.30
2018-07-05T16:59:51.464Z,72.60
2018-07-05T17:02:24.938Z,72.30
2018-07-05T17:04:58.344Z,72.20
2018-07-05T17:07:31.700Z,71.70
2018-07-05T17:10:05.733Z,71.80
2018-07-05T17:12:39.144Z,71.70
2018-07-05T17:15:13.664Z,71.70
2018-07-05T17:17:47.192Z,71.80
2018-07-05T17:20:20.720Z,71.90
2018-07-05T17:22:53.996Z,72.00
2018-07-05T17:25:28.144Z,71.90
2018-07-05T17:28:01.513Z,72.00
2018-07-05T17:30:34.955Z,72.10
2018-07-05T17:33:08.329Z,72.20
2018-07-05T17:35:41.601Z,71.70
2018-07-05T17:38:15.112Z,71.90
2018-07-05T17:40:48.532Z,71.90
2018-07-05T17:43:21.959Z,72.00
2018-07-05T17:45:55.420Z,72.20
2018-07-05T17:48:29.349Z,72.10
2018-07-05T17:51:03.849Z,72.30
2018-07-05T17:53:37.158Z,72.10
2018-07-05T17:56:10.588Z,72.10
2018-07-05T17:58:43.848Z,72.20
2018-07-05T18:01:17.357Z,72.30
2018-07-05T18:03:50.781Z,72.30
2018-07-05T18:06:24.095Z,72.40
2018-07-05T18:08:58.129Z,72.30
2018-07-05T18:11:31.580Z,72.30
2018-07-05T18:14:04.971Z,72.20
2018-07-05T18:16:38.244Z,72.20
2018-07-05T18:19:11.652Z,72.30
2018-07-05T18:21:45.065Z,72.40
2018-07-05T18:24:18.496Z,72.50
2018-07-05T18:26:51.942Z,72.30
2018-07-05T18:29:25.355Z,72.50
2018-07-05T18:31:58.784Z,72.50
2018-07-05T18:34:32.170Z,72.60
2018-07-05T18:37:05.612Z,72.60
2018-07-05T18:39:38.930Z,72.50
2018-07-05T18:44:39.823Z,72.60
2018-07-05T18:47:13.261Z,72.60
2018-07-05T18:49:46.775Z,72.50
2018-07-05T18:52:20.306Z,72.60
2018-07-05T18:54:53.790Z,72.60
2018-07-05T18:57:28.719Z,72.70
2018-07-05T19:00:02.228Z,72.70
2018-07-05T19:02:35.741Z,72.80
2018-07-05T19:05:10.210Z,72.80
2018-07-05T19:07:43.580Z,72.90
2018-07-05T19:10:17.041Z,72.80
2018-07-05T19:12:50.467Z,72.80
2018-07-05T19:15:24.030Z,73.40
2018-07-05T19:17:58.627Z,72.70
2018-07-05T19:20:32.144Z,72.70
2018-07-05T19:23:05.662Z,72.70
2018-07-05T19:25:39.335Z,72.70
2018-07-05T19:28:12.817Z,72.70
2018-07-05T19:30:46.445Z,72.80
2018-07-05T19:33:20.108Z,72.90
2018-07-05T19:35:53.682Z,72.90
2018-07-05T19:38:28.749Z,72.90
2018-07-05T19:41:02.254Z,72.90
2018-07-05T19:43:35.710Z,73.00
2018-07-05T19:46:09.750Z,72.50
2018-07-05T19:48:43.212Z,72.60
2018-07-05T19:51:16.806Z,72.70
2018-07-05T19:53:50.422Z,72.80
2018-07-05T19:56:24.176Z,72.90
2018-07-05T19:58:59.066Z,72.80
2018-07-05T20:01:33.414Z,72.90
2018-07-05T20:04:07.081Z,73.00
2018-07-05T20:06:41.085Z,73.00
2018-07-05T20:09:14.675Z,73.00
2018-07-05T20:11:53.773Z,73.00
2018-07-05T20:14:28.785Z,73.00
2018-07-05T20:17:03.398Z,73.10
2018-07-05T20:19:36.939Z,73.20
2018-07-05T20:22:17.687Z,73.10
2018-07-05T20:24:51.203Z,73.10
2018-07-05T20:27:24.818Z,72.70
2018-07-05T20:29:58.501Z,73.10
2018-07-05T20:32:32.162Z,73.20
2018-07-05T20:35:05.775Z,73.10
2018-07-05T20:37:39.342Z,73.10
2018-07-05T20:40:12.917Z,73.10
2018-07-05T20:42:46.454Z,73.20
2018-07-05T20:45:20.049Z,73.20
2018-07-05T20:47:53.495Z,73.30
2018-07-05T20:50:27.733Z,73.40
2018-07-05T20:53:01.260Z,73.30
2018-07-05T20:55:34.611Z,73.30
2018-07-05T20:58:08.031Z,73.30
2018-07-05T21:00:41.565Z,73.30
2018-07-05T21:03:14.914Z,73.30
2018-07-05T21:05:48.439Z,73.40
2018-07-05T21:08:21.727Z,73.50
2018-07-05T21:10:55.030Z,73.40
2018-07-05T21:13:28.520Z,73.40
2018-07-05T21:16:01.965Z,73.50
2018-07-05T21:18:36.348Z,73.50
2018-07-05T21:21:09.838Z,73.40
2018-07-05T21:23:43.328Z,73.40
2018-07-05T21:26:16.569Z,73.40
2018-07-05T21:28:49.924Z,73.50
2018-07-05T21:33:50.745Z,73.50
2018-07-05T21:36:24.536Z,73.40
2018-07-05T21:38:57.865Z,73.50
2018-07-05T21:41:31.227Z,73.50
2018-07-05T21:44:04.621Z,73.40
2018-07-05T21:46:38.390Z,73.50
2018-07-05T21:49:11.681Z,73.40
2018-07-05T21:51:45.124Z,73.50
2018-07-05T21:54:18.572Z,74.10
2018-07-05T21:56:51.937Z,73.50
2018-07-05T21:59:25.228Z,73.60
2018-07-05T22:01:58.643Z,73.60
2018-07-05T22:04:31.980Z,73.70
2018-07-05T22:07:05.849Z,73.70
2018-07-05T22:09:39.089Z,73.70
2018-07-05T22:12:12.552Z,73.70
2018-07-05T22:14:45.940Z,73.70
2018-07-05T22:17:24.972Z,73.70
2018-07-05T22:20:03.732Z,73.80
2018-07-05T22:22:42.685Z,73.80
2018-07-05T22:25:21.473Z,73.70
2018-07-05T22:28:00.492Z,73.70
2018-07-05T22:30:39.296Z,73.80
2018-07-05T22:33:12.692Z,73.90
2018-07-05T22:35:45.950Z,73.80
2018-07-05T22:38:19.405Z,73.80
2018-07-05T22:40:52.772Z,73.90
2018-07-05T22:43:26.934Z,73.70
2018-07-05T22:46:00.272Z,73.80
2018-07-05T22:48:34.861Z,73.80
2018-07-05T22:51:08.146Z,73.80
2018-07-05T22:53:42.385Z,73.90
2018-07-05T22:56:15.784Z,74.10
2018-07-05T22:58:49.071Z,73.90
2018-07-05T23:01:22.509Z,73.90
2018-07-05T23:03:57.688Z,73.90
2018-07-05T23:06:31.148Z,74.00
2018-07-05T23:09:04.888Z,73.90
2018-07-05T23:11:38.240Z,74.00
2018-07-05T23:14:11.608Z,73.90
2018-07-05T23:16:45.025Z,73.90
2018-07-05T23:19:18.415Z,73.90
2018-07-05T23:21:51.775Z,74.00
2018-07-05T23:24:25.085Z,74.00
2018-07-05T23:26:58.523Z,74.00
2018-07-05T23:29:31.824Z,74.00
2018-07-05T23:32:05.230Z,74.00
2018-07-05T23:34:38.690Z,74.10
2018-07-05T23:37:12.138Z,74.00
2018-07-05T23:39:45.564Z,74.10
2018-07-05T23:42:18.860Z,74.10
2018-07-05T23:44:52.386Z,74.00
2018-07-05T23:47:25.844Z,74.10
2018-07-05T23:49:59.108Z,74.10
2018-07-05T23:52:33.453Z,74.10
2018-07-05T23:55:06.776Z,74.10
2018-07-05T23:57:40.184Z,74.10
